Time;durP1;ratioP1;P1;durP2;ratioP2;P2;SDS_P1;SDS_P2;PMS_P1;PMS_P2;Temp;Humidity;BMP_temperature;BMP_pressure;BME280_temperature;BME280_humidity;BME280_pressure;Samples;Min_cycle;Max_cycle;Signal;HPM_P1;HPM_P2
2023/03/31 00:02:35;;;;;;;30.60;15.60;;;;;;;13.69;82.92;97967.48;68318;1283;1015198;-61
2023/03/31 00:05:38;;;;;;;33.00;14.70;;;;;;;13.65;83.67;97964.64;68308;1283;1015562;-61
2023/03/31 00:08:41;;;;;;;32.50;15.40;;;;;;;13.64;84.20;97971.60;68290;1283;1015912;-61
2023/03/31 00:11:43;;;;;;;33.20;15.20;;;;;;;13.54;85.45;97974.89;68300;1283;1016004;-61
2023/03/31 00:14:45;;;;;;;30.70;14.90;;;;;;;13.57;84.78;97973.08;68300;1283;1014759;-61
2023/03/31 00:17:48;;;;;;;32.50;15.40;;;;;;;13.52;85.53;97970.34;68289;1283;1015561;-61
2023/03/31 00:20:51;;;;;;;33.10;14.20;;;;;;;13.56;84.97;97967.40;68313;1283;1015654;-61
2023/03/31 00:23:54;;;;;;;29.30;14.20;;;;;;;13.64;84.36;97967.75;68305;1283;1015773;-61
2023/03/31 00:26:56;;;;;;;32.60;15.20;;;;;;;13.64;84.11;97978.78;68300;1283;1015160;-61
2023/03/31 00:29:59;;;;;;;38.40;16.80;;;;;;;13.57;84.68;97975.90;68307;1283;1016096;-61
2023/03/31 00:33:01;;;;;;;30.70;13.50;;;;;;;13.59;84.62;97973.91;68301;1283;1015960;-61
2023/03/31 00:36:04;;;;;;;30.60;13.50;;;;;;;13.46;85.82;97982.13;68313;1283;1015791;-61
2023/03/31 00:39:07;;;;;;;29.60;13.00;;;;;;;13.41;86.15;97977.09;68309;1283;1015441;-61
2023/03/31 00:42:11;;;;;;;;;;;;;;;13.27;87.23;97969.80;68304;1283;1016552;-62
2023/03/31 00:45:14;;;;;;;29.90;13.00;;;;;;;13.16;88.42;97972.30;68312;1260;1016188;-61
2023/03/31 00:48:16;;;;;;;30.00;13.30;;;;;;;12.94;90.82;97966.77;68284;1283;1015542;-61
2023/03/31 00:51:18;;;;;;;31.60;13.10;;;;;;;13.00;90.48;97961.20;68297;1283;1016433;-61
2023/03/31 00:54:22;;;;;;;27.80;11.70;;;;;;;13.02;90.27;97955.41;68294;1283;1015300;-61
2023/03/31 00:57:27;;;;;;;31.40;12.10;;;;;;;12.97;90.32;97954.61;68297;1283;1015633;-61
2023/03/31 01:00:29;;;;;;;29.00;11.80;;;;;;;12.95;90.46;97949.70;68307;1283;1015657;-61
2023/03/31 01:03:33;;;;;;;28.80;11.90;;;;;;;12.91;91.06;97949.15;68301;1283;1015272;-61
2023/03/31 01:06:35;;;;;;;;;;;;;;;12.82;92.82;97949.58;68301;1283;1015343;-61
2023/03/31 01:09:37;;;;;;;27.40;11.60;;;;;;;12.80;93.13;97951.96;68296;1283;1015043;-62
2023/03/31 01:12:40;;;;;;;28.80;12.40;;;;;;;12.78;93.96;97945.44;68295;1283;1016378;-61
2023/03/31 01:15:42;;;;;;;27.70;12.60;;;;;;;12.79;94.17;97944.31;68313;1283;1015958;-61
2023/03/31 01:18:45;;;;;;;29.00;12.10;;;;;;;12.82;93.82;97942.34;68300;1283;1015931;-62
2023/03/31 01:21:47;;;;;;;25.90;11.60;;;;;;;12.87;93.37;97933.52;65732;1283;5368380;-61
2023/03/31 01:24:50;;;;;;;26.80;11.70;;;;;;;12.95;92.79;97930.89;68319;1283;1015151;-61
2023/03/31 01:27:53;;;;;;;25.50;11.70;;;;;;;12.90;93.81;97945.71;68306;1283;1015467;-61
2023/03/31 01:30:55;;;;;;;28.90;12.50;;;;;;;12.91;93.50;97948.95;68302;1283;1015497;-61
2023/03/31 01:34:06;;;;;;;26.00;11.40;;;;;;;13.01;92.58;97947.96;68280;1283;1016319;-61
2023/03/31 01:37:08;;;;;;;25.80;11.10;;;;;;;13.06;91.36;97951.91;68314;1283;1015423;-61
2023/03/31 01:40:11;;;;;;;25.50;11.40;;;;;;;13.03;91.85;97952.04;68294;1283;1015669;-61
2023/03/31 01:43:13;;;;;;;26.50;10.50;;;;;;;13.05;91.15;97951.29;68300;1283;1015605;-62
2023/03/31 01:46:15;;;;;;;27.00;11.10;;;;;;;13.09;91.27;97954.67;68310;1283;1015206;-61
2023/03/31 01:49:18;;;;;;;25.50;10.20;;;;;;;13.29;89.35;97962.25;68296;1283;1015855;-61
2023/03/31 01:52:20;;;;;;;26.80;10.00;;;;;;;13.47;87.73;97962.81;68316;1283;1015976;-62
2023/03/31 01:55:23;;;;;;;24.60;9.80;;;;;;;13.53;87.00;97964.23;68308;1283;1015481;-61
2023/03/31 01:58:25;;;;;;;26.80;10.20;;;;;;;13.57;86.78;97958.71;68295;1283;1015544;-61
2023/03/31 02:01:28;;;;;;;;;;;;;;;13.65;85.82;97958.65;68307;1283;1016393;-62
2023/03/31 02:04:31;;;;;;;25.50;10.20;;;;;;;13.58;86.31;97964.56;68295;1283;1015680;-61
2023/03/31 02:07:34;;;;;;;26.00;9.40;;;;;;;13.55;86.43;97962.05;68287;1283;1015573;-61
2023/03/31 02:10:36;;;;;;;24.60;9.20;;;;;;;13.47;86.66;97960.92;68302;1283;1015976;-61
2023/03/31 02:13:40;;;;;;;22.70;9.10;;;;;;;13.41;86.80;97964.59;68302;1283;1015748;-61
2023/03/31 02:16:46;;;;;;;25.50;8.60;;;;;;;13.59;85.28;97967.45;68297;1283;1015785;-61
2023/03/31 02:19:49;;;;;;;25.00;8.80;;;;;;;13.44;86.02;97967.81;68300;1283;1014160;-61
2023/03/31 02:22:52;;;;;;;28.90;9.50;;;;;;;13.31;86.79;97963.52;68306;1283;1016206;-61
2023/03/31 02:25:54;;;;;;;24.90;8.70;;;;;;;13.25;87.21;97967.56;68295;1283;1015645;-62
2023/03/31 02:28:57;;;;;;;23.50;7.90;;;;;;;13.20;87.19;97966.32;68308;1283;1015370;-61
2023/03/31 02:31:59;;;;;;;24.60;8.00;;;;;;;13.23;86.85;97970.15;68300;1283;1016203;-62
2023/03/31 02:35:01;;;;;;;22.30;8.20;;;;;;;13.26;86.39;97973.77;68301;1283;1015468;-61
2023/03/31 02:38:05;;;;;;;22.30;8.00;;;;;;;13.23;86.25;97967.50;68308;1283;1015410;-61
2023/03/31 02:41:08;;;;;;;20.80;7.50;;;;;;;13.20;86.28;97965.79;68305;1283;1015611;-61
2023/03/31 02:44:10;;;;;;;20.90;7.30;;;;;;;13.11;86.55;97966.76;68318;1283;1015585;-61
2023/03/31 02:47:12;;;;;;;22.30;7.90;;;;;;;13.26;84.97;97966.02;68303;1283;1015383;-62
2023/03/31 02:50:15;;;;;;;23.40;7.20;;;;;;;13.23;84.23;97962.41;68301;1283;1015925;-61
2023/03/31 02:53:17;;;;;;;22.40;6.80;;;;;;;13.17;84.33;97961.86;68301;1283;1015339;-61
2023/03/31 02:56:20;;;;;;;23.10;6.90;;;;;;;13.11;84.42;97956.42;68308;1283;1015700;-61
2023/03/31 02:59:22;;;;;;;23.70;7.40;;;;;;;12.95;85.45;97965.14;68301;1283;1016317;-61
2023/03/31 03:02:25;;;;;;;23.60;7.50;;;;;;;13.24;83.03;97968.11;68301;1283;1015908;-61
2023/03/31 03:05:28;;;;;;;22.30;7.80;;;;;;;13.55;80.66;97963.75;68305;1283;1015263;-61
2023/03/31 03:08:30;;;;;;;19.20;6.40;;;;;;;13.38;81.37;97968.74;68310;1283;1015498;-61
2023/03/31 03:11:33;;;;;;;23.90;7.30;;;;;;;13.32;81.61;97967.97;68309;1283;1015750;-61
2023/03/31 03:14:35;;;;;;;20.70;6.30;;;;;;;13.40;80.61;97958.85;68303;1283;1015777;-61
2023/03/31 03:17:37;;;;;;;21.30;6.80;;;;;;;13.37;80.23;97961.61;68289;1283;1015581;-61
2023/03/31 03:20:40;;;;;;;20.90;6.70;;;;;;;13.26;80.40;97970.42;68307;1283;1015155;-61
2023/03/31 03:23:43;;;;;;;20.40;6.10;;;;;;;13.37;79.49;97965.27;68312;1283;1014380;-61
2023/03/31 03:26:45;;;;;;;19.80;6.00;;;;;;;13.22;79.94;97963.22;68294;1283;1015763;-61
2023/03/31 03:29:47;;;;;;;18.00;5.70;;;;;;;13.32;78.85;97967.14;68301;1283;1015966;-61
2023/03/31 03:32:50;;;;;;;19.60;5.90;;;;;;;13.27;78.89;97970.21;68292;1283;1015386;-60
2023/03/31 03:35:52;;;;;;;18.00;5.40;;;;;;;13.32;78.45;97973.79;68296;1283;1016090;-62
2023/03/31 03:38:54;;;;;;;19.70;5.10;;;;;;;13.15;79.52;97974.69;68302;1283;1015902;-60
2023/03/31 03:41:57;;;;;;;20.40;5.80;;;;;;;13.22;78.94;97970.42;68293;1283;1015432;-61
2023/03/31 03:45:00;;;;;;;22.50;6.90;;;;;;;13.23;78.76;97961.04;68295;1283;1015963;-61
2023/03/31 03:48:02;;;;;;;20.30;5.70;;;;;;;13.21;78.58;97966.97;68294;1283;1015302;-61
2023/03/31 03:51:05;;;;;;;22.00;6.30;;;;;;;13.33;77.82;97961.80;68299;1283;1016207;-61
2023/03/31 03:54:08;;;;;;;20.10;5.40;;;;;;;13.27;77.73;97956.82;68291;1283;1015817;-61
2023/03/31 03:57:10;;;;;;;20.50;5.30;;;;;;;13.22;77.74;97948.85;68303;1283;1015216;-61
2023/03/31 04:00:13;;;;;;;19.90;5.90;;;;;;;13.22;77.31;97944.61;68297;1283;1014206;-61
2023/03/31 04:03:15;;;;;;;20.50;5.50;;;;;;;13.19;77.61;97949.91;68298;1283;1015937;-61
2023/03/31 04:06:17;;;;;;;22.80;6.60;;;;;;;13.14;77.85;97950.00;68311;1283;1016045;-61
2023/03/31 04:09:20;;;;;;;22.20;6.70;;;;;;;13.21;77.62;97949.48;68308;1283;1015475;-61
2023/03/31 04:12:22;;;;;;;24.50;7.20;;;;;;;13.33;77.02;97952.09;68300;1283;1016217;-61
2023/03/31 04:15:24;;;;;;;21.20;6.80;;;;;;;13.37;76.90;97942.95;68304;1283;1015867;-61
2023/03/31 04:18:27;;;;;;;22.80;7.00;;;;;;;13.55;75.85;97939.54;68303;1283;1014778;-61
2023/03/31 04:21:29;;;;;;;21.90;7.30;;;;;;;13.49;75.97;97938.61;68303;1283;1015427;-61
2023/03/31 04:24:32;;;;;;;22.20;6.70;;;;;;;13.53;75.94;97935.31;68299;1283;1015828;-61
2023/03/31 04:27:34;;;;;;;22.20;6.90;;;;;;;13.51;75.70;97931.96;68308;1283;1016188;-61
2023/03/31 04:30:38;;;;;;;22.40;6.50;;;;;;;13.56;75.39;97924.35;68289;1283;1015725;-61
2023/03/31 04:33:44;;;;;;;20.80;7.20;;;;;;;13.50;75.55;97924.47;68305;1283;1015649;-61
2023/03/31 04:36:49;;;;;;;21.70;6.90;;;;;;;13.50;75.02;97922.02;68310;1283;1015805;-61
2023/03/31 04:39:53;;;;;;;24.20;7.80;;;;;;;13.58;74.50;97916.45;68302;1283;1016139;-61
2023/03/31 04:42:55;;;;;;;22.60;7.40;;;;;;;13.67;73.81;97922.15;68305;1283;1015802;-61
2023/03/31 04:45:58;;;;;;;24.50;8.50;;;;;;;13.79;73.02;97921.98;68316;1283;1015382;-61
2023/03/31 04:49:01;;;;;;;22.00;8.20;;;;;;;13.72;73.42;97921.19;68302;1283;1015587;-61
2023/03/31 04:52:04;;;;;;;27.50;9.60;;;;;;;13.62;74.07;97920.28;68304;1283;1016118;-61
2023/03/31 04:55:06;;;;;;;25.80;10.30;;;;;;;13.60;74.24;97921.70;68301;1283;1015202;-61
2023/03/31 04:58:09;;;;;;;26.20;10.50;;;;;;;13.72;73.61;97914.13;68303;1283;1015996;-61
2023/03/31 05:01:12;;;;;;;25.50;9.30;;;;;;;13.95;72.67;97912.27;68297;1283;1015874;-61
2023/03/31 05:04:14;;;;;;;27.00;9.50;;;;;;;14.03;72.08;97909.44;68303;1283;1015466;-62
2023/03/31 05:07:17;;;;;;;26.60;9.70;;;;;;;14.14;71.35;97909.14;68302;1283;1015141;-61
2023/03/31 05:10:20;;;;;;;;;;;;;;;14.10;71.84;97910.08;68317;1283;1015382;-61
2023/03/31 05:13:23;;;;;;;23.00;8.50;;;;;;;14.34;70.70;97905.81;68303;1283;1016002;-61
2023/03/31 05:16:25;;;;;;;25.40;8.70;;;;;;;14.24;71.02;97906.84;68301;1283;1015961;-61
2023/03/31 05:19:27;;;;;;;25.10;9.30;;;;;;;14.42;70.32;97909.41;68299;1283;1015539;-61
2023/03/31 05:22:30;;;;;;;25.10;8.50;;;;;;;14.60;69.74;97901.00;68304;1283;1015335;-61
2023/03/31 05:25:32;;;;;;;25.60;9.20;;;;;;;14.65;69.31;97905.70;68300;1283;1015478;-61
2023/03/31 05:28:35;;;;;;;25.80;9.90;;;;;;;14.62;69.67;97899.95;68295;1283;1015557;-61
2023/03/31 05:31:37;;;;;;;24.60;10.00;;;;;;;14.64;69.47;97899.01;68302;1283;1016146;-61
2023/03/31 05:34:42;;;;;;;26.30;9.60;;;;;;;14.76;68.74;97894.63;68294;1283;1016087;-61
2023/03/31 05:37:44;;;;;;;26.50;10.20;;;;;;;14.81;68.06;97888.45;68298;1283;1016749;-61
2023/03/31 05:40:46;;;;;;;25.10;9.70;;;;;;;14.91;68.20;97886.29;68300;1283;1015433;-61
2023/03/31 05:43:49;;;;;;;25.30;9.00;;;;;;;14.80;68.21;97886.83;68302;1283;1015885;-61
2023/03/31 05:46:51;;;;;;;26.60;9.90;;;;;;;14.92;68.18;97881.67;68300;1283;1016245;-61
2023/03/31 05:49:55;;;;;;;24.50;10.00;;;;;;;15.12;67.75;97878.70;68302;1283;1016143;-61
2023/03/31 05:52:58;;;;;;;25.50;9.20;;;;;;;15.41;66.99;97874.06;68308;1283;1015963;-61
2023/03/31 05:56:01;;;;;;;23.90;8.70;;;;;;;15.55;65.79;97871.67;68304;1283;1015812;-61
2023/03/31 05:59:03;;;;;;;22.00;7.90;;;;;;;15.51;65.40;97872.20;68308;1283;1016235;-61
2023/03/31 06:02:05;;;;;;;22.70;7.90;;;;;;;15.51;64.78;97870.70;68302;1283;1015671;-61
2023/03/31 06:05:08;;;;;;;23.40;8.40;;;;;;;15.49;64.02;97866.42;68298;1283;1015639;-61
2023/03/31 06:08:10;;;;;;;26.20;9.00;;;;;;;15.52;64.61;97867.36;68310;1283;1015030;-61
2023/03/31 06:11:13;;;;;;;24.90;8.30;;;;;;;15.73;64.56;97865.50;68310;1283;1016186;-61
2023/03/31 06:14:15;;;;;;;21.50;8.00;;;;;;;15.72;64.09;97864.42;68296;1283;1015462;-61
2023/03/31 06:17:17;;;;;;;24.30;8.20;;;;;;;15.71;63.85;97867.10;68297;1283;1015582;-61
2023/03/31 06:20:20;;;;;;;23.90;8.60;;;;;;;15.91;64.10;97867.21;68310;1283;1016088;-61
2023/03/31 06:23:22;;;;;;;24.30;9.20;;;;;;;16.03;64.10;97858.60;68302;1283;1015325;-61
2023/03/31 06:26:24;;;;;;;25.70;9.70;;;;;;;16.22;63.33;97859.70;68299;1283;1015970;-61
2023/03/31 06:29:27;;;;;;;29.20;12.50;;;;;;;16.19;63.41;97863.89;68297;1283;1015691;-61
2023/03/31 06:32:29;;;;;;;28.20;11.70;;;;;;;16.32;62.69;97866.48;68300;1283;1016003;-61
2023/03/31 06:35:32;;;;;;;25.30;10.40;;;;;;;16.34;62.30;97869.65;68297;1283;1015504;-61
2023/03/31 06:38:35;;;;;;;35.70;15.50;;;;;;;16.42;62.16;97867.44;68300;1283;1015597;-61
2023/03/31 06:41:37;;;;;;;32.40;13.70;;;;;;;16.49;62.21;97870.27;68296;1283;1015606;-61
2023/03/31 06:44:40;;;;;;;;;;;;;;;16.52;61.82;97872.41;68310;1283;1016120;-61
2023/03/31 06:47:42;;;;;;;25.30;9.60;;;;;;;16.57;60.65;97874.52;68302;1283;1016116;-62
2023/03/31 06:50:45;;;;;;;29.70;11.60;;;;;;;16.39;61.92;97877.98;68312;1283;1015710;-61
2023/03/31 06:53:47;;;;;;;28.90;11.70;;;;;;;16.44;62.29;97875.13;68294;1283;1015912;-61
2023/03/31 06:56:49;;;;;;;27.10;10.90;;;;;;;16.33;62.02;97880.25;68292;1261;1015285;-61
2023/03/31 06:59:52;;;;;;;28.90;10.70;;;;;;;16.38;61.99;97881.08;68297;1283;1015311;-61
2023/03/31 07:02:54;;;;;;;30.50;12.80;;;;;;;16.56;61.83;97881.20;68307;1283;1015698;-61
2023/03/31 07:05:57;;;;;;;28.80;10.70;;;;;;;16.81;61.28;97876.04;68302;1283;1015509;-61
2023/03/31 07:08:59;;;;;;;30.40;12.00;;;;;;;16.88;60.73;97873.23;68291;1283;1015313;-61
2023/03/31 07:12:04;;;;;;;28.10;10.30;;;;;;;17.00;60.09;97875.41;68284;1283;1016012;-61
2023/03/31 07:15:06;;;;;;;27.70;10.20;;;;;;;16.86;60.42;97873.09;68303;1283;1015956;-61
2023/03/31 07:18:08;;;;;;;30.90;11.10;;;;;;;16.83;60.80;97876.42;68293;1283;1015652;-61
2023/03/31 07:21:11;;;;;;;28.60;9.00;;;;;;;17.08;59.85;97871.69;68299;1283;1015791;-61
2023/03/31 07:24:13;;;;;;;22.30;7.90;;;;;;;17.19;60.24;97871.10;68282;1283;1015795;-62
2023/03/31 07:27:15;;;;;;;23.20;8.50;;;;;;;17.18;58.55;97862.75;68296;1283;1015234;-61
2023/03/31 07:30:18;;;;;;;27.10;8.90;;;;;;;17.30;58.58;97862.16;68298;1283;1016130;-61
2023/03/31 07:33:21;;;;;;;24.00;8.00;;;;;;;17.48;57.46;97855.52;68300;1283;1016391;-61
2023/03/31 07:36:23;;;;;;;23.50;7.90;;;;;;;17.59;57.03;97857.63;68283;1283;1016015;-61
2023/03/31 07:39:26;;;;;;;22.40;7.80;;;;;;;17.68;56.87;97863.20;68292;1283;1015779;-61
2023/03/31 07:42:28;;;;;;;21.40;7.70;;;;;;;17.79;56.28;97851.67;68307;1283;1015756;-61
2023/03/31 07:45:30;;;;;;;25.90;8.60;;;;;;;17.84;55.66;97846.52;68299;1283;1015290;-61
2023/03/31 07:48:33;;;;;;;22.40;7.60;;;;;;;17.99;55.75;97851.10;68286;1283;1015759;-61
2023/03/31 07:51:35;;;;;;;23.20;7.60;;;;;;;18.14;56.17;97843.47;68289;1283;1015754;-61
2023/03/31 07:54:37;;;;;;;27.20;8.80;;;;;;;18.22;56.18;97847.36;68295;1283;1015553;-61
2023/03/31 07:57:40;;;;;;;23.10;8.40;;;;;;;18.52;56.32;97841.98;68302;1283;1015813;-61
2023/03/31 08:00:43;;;;;;;24.00;8.30;;;;;;;18.65;54.86;97838.61;68302;1283;1015930;-61
2023/03/31 08:03:45;;;;;;;26.10;8.30;;;;;;;18.89;53.82;97837.66;68293;1283;1015729;-62
2023/03/31 08:06:49;;;;;;;24.90;8.10;;;;;;;18.89;54.55;97829.91;68283;1283;1015765;-61
2023/03/31 08:09:52;;;;;;;23.00;7.00;;;;;;;19.14;53.61;97818.81;68295;1283;1015997;-61
2023/03/31 08:12:54;;;;;;;22.10;7.30;;;;;;;19.15;52.84;97815.78;68297;1283;1016216;-61
2023/03/31 08:15:57;;;;;;;24.40;7.40;;;;;;;19.46;53.49;97811.90;68288;1283;1015702;-62
2023/03/31 08:19:00;;;;;;;20.80;6.70;;;;;;;19.77;52.63;97802.04;68297;1283;1016147;-61
2023/03/31 08:22:02;;;;;;;21.00;6.90;;;;;;;20.21;51.94;97797.68;68297;1283;1015297;-61
2023/03/31 08:25:05;;;;;;;;;;;;;;;20.36;49.53;97797.91;68303;1283;1015813;-62
2023/03/31 08:28:09;;;;;;;21.30;6.10;;;;;;;20.28;50.65;97790.73;68286;1283;1015356;-61
2023/03/31 08:31:15;;;;;;;21.00;6.60;;;;;;;20.04;49.31;97795.27;68297;1261;1016426;-62
2023/03/31 08:34:17;;;;;;;22.30;6.30;;;;;;;20.07;50.64;97786.33;68314;1283;1017405;-61
2023/03/31 08:37:20;;;;;;;23.10;6.20;;;;;;;20.38;50.63;97781.55;68313;1283;1016229;-61
2023/03/31 08:40:22;;;;;;;19.80;5.10;;;;;;;20.49;48.89;97780.61;68289;1283;1016070;-61
2023/03/31 08:43:25;;;;;;;;;;;;;;;20.52;48.07;97784.44;68307;1283;1014623;-61
2023/03/31 08:46:27;;;;;;;19.30;5.40;;;;;;;20.22;48.75;97775.58;68304;1283;1016085;-61
2023/03/31 08:49:29;;;;;;;20.20;5.40;;;;;;;20.08;49.07;97779.11;68302;1283;1016275;-61
2023/03/31 08:52:32;;;;;;;20.60;5.30;;;;;;;20.12;49.31;97780.46;68303;1283;1016178;-62
2023/03/31 08:55:36;;;;;;;20.50;5.70;;;;;;;20.48;50.77;97769.16;68288;1283;1015449;-62
2023/03/31 08:58:39;;;;;;;;;;;;;;;21.16;50.30;97767.95;68296;1283;1015131;-62
2023/03/31 09:01:41;;;;;;;19.70;5.50;;;;;;;21.83;48.25;97753.04;68285;1283;1015562;-62
2023/03/31 09:04:44;;;;;;;17.60;5.30;;;;;;;22.19;47.36;97749.27;68295;1283;1015346;-62
2023/03/31 09:07:46;;;;;;;17.70;5.00;;;;;;;22.17;47.72;97746.98;68299;1283;1015483;-62
2023/03/31 09:10:49;;;;;;;;;;;;;;;21.90;46.72;97749.64;68304;1283;1015957;-62
2023/03/31 09:13:51;;;;;;;18.70;5.00;;;;;;;21.35;46.44;97747.02;68287;1283;1015485;-62
2023/03/31 09:16:54;;;;;;;;;;;;;;;21.14;47.35;97740.66;68294;1283;1016621;-62
2023/03/31 09:19:57;;;;;;;22.70;6.10;;;;;;;21.03;47.26;97737.61;68290;1283;1016038;-62
2023/03/31 09:23:00;;;;;;;22.00;5.90;;;;;;;21.02;47.55;97729.13;68302;1283;1015773;-62
2023/03/31 09:26:03;;;;;;;;;;;;;;;21.10;47.56;97725.71;68293;1283;1015807;-62
2023/03/31 09:29:07;;;;;;;18.70;5.70;;;;;;;21.24;47.44;97720.96;68289;1283;1015887;-62
2023/03/31 09:32:10;;;;;;;16.60;4.90;;;;;;;21.32;47.31;97718.41;68283;1272;1015923;-62
2023/03/31 09:35:13;;;;;;;;;;;;;;;21.27;46.82;97714.88;68295;1283;1015754;-62
2023/03/31 09:38:15;;;;;;;20.10;4.90;;;;;;;21.10;46.26;97712.32;68279;1283;1016275;-62
2023/03/31 09:41:18;;;;;;;15.50;4.20;;;;;;;21.03;46.80;97703.79;68283;1283;1015838;-62
2023/03/31 09:44:21;;;;;;;20.00;4.60;;;;;;;21.51;46.49;97696.34;68297;1283;1016570;-62
2023/03/31 09:47:23;;;;;;;;;;;;;;;21.55;46.79;97690.54;68297;1283;1015320;-62
2023/03/31 09:50:26;;;;;;;19.10;4.70;;;;;;;22.34;46.60;97680.92;68297;1283;1015812;-62
2023/03/31 09:53:28;;;;;;;19.50;5.20;;;;;;;22.77;44.85;97666.34;68289;1283;1015345;-62
2023/03/31 09:56:30;;;;;;;;;;;;;;;22.62;44.09;97671.71;68293;1283;1015866;-63
2023/03/31 09:59:33;;;;;;;14.90;3.60;;;;;;;22.25;43.58;97669.04;68297;1283;1015374;-62
2023/03/31 10:02:36;;;;;;;16.70;4.00;;;;;;;21.86;44.13;97670.95;68306;1283;1015468;-62
2023/03/31 10:05:38;;;;;;;16.60;3.90;;;;;;;21.45;44.41;97668.98;68283;1283;1016133;-62
2023/03/31 10:08:41;;;;;;;18.00;4.50;;;;;;;20.84;44.58;97666.10;68296;1283;1016204;-62
2023/03/31 10:11:43;;;;;;;;;;;;;;;20.81;45.62;97654.38;68294;1283;1015647;-62
2023/03/31 10:14:45;;;;;;;17.70;4.60;;;;;;;21.36;45.94;97654.48;68293;1283;1015303;-62
2023/03/31 10:17:48;;;;;;;;;;;;;;;22.18;45.43;97644.95;68303;1283;1014338;-62
2023/03/31 10:20:51;;;;;;;18.30;4.70;;;;;;;22.44;44.12;97638.95;68301;1283;1016812;-62
2023/03/31 10:23:54;;;;;;;15.90;3.90;;;;;;;22.42;43.11;97635.30;68297;1283;1015617;-62
2023/03/31 10:26:56;;;;;;;;;;;;;;;22.37;43.42;97630.21;68302;1283;1015813;-62
2023/03/31 10:29:58;;;;;;;16.10;3.80;;;;;;;22.47;41.69;97620.36;68292;1283;1016239;-62
2023/03/31 10:33:01;;;;;;;;;;;;;;;22.04;42.67;97619.69;68291;1283;1015675;-62
2023/03/31 10:36:03;;;;;;;18.20;4.30;;;;;;;21.72;42.59;97616.52;68298;1283;1015735;-63
2023/03/31 10:39:05;;;;;;;;;;;;;;;21.38;42.44;97612.34;68292;1283;1015977;-62
2023/03/31 10:42:08;;;;;;;17.30;3.90;;;;;;;21.30;42.66;97616.64;68302;1283;1016039;-62
2023/03/31 10:45:10;;;;;;;;;;;;;;;21.40;43.31;97612.81;68301;1272;1015831;-62
2023/03/31 10:48:12;;;;;;;20.00;4.90;;;;;;;21.64;42.41;97606.86;68291;1283;1015611;-62
2023/03/31 10:51:15;;;;;;;;;;;;;;;21.81;42.52;97604.64;68302;1283;1015710;-62
2023/03/31 10:54:18;;;;;;;18.50;3.80;;;;;;;21.89;42.02;97609.66;68282;1283;1015909;-62
2023/03/31 10:57:21;;;;;;;17.40;4.00;;;;;;;22.08;41.79;97608.54;68290;1283;1015394;-62
2023/03/31 11:00:23;;;;;;;;;;;;;;;22.32;42.11;97608.80;68298;1283;1015889;-62
2023/03/31 11:03:25;;;;;;;16.90;4.00;;;;;;;22.39;41.37;97605.21;68297;1283;1015935;-62
2023/03/31 11:06:28;;;;;;;;;;;;;;;22.28;41.67;97607.53;68295;1283;1015311;-62
2023/03/31 11:09:30;;;;;;;16.10;3.80;;;;;;;22.22;41.67;97596.70;68277;1283;1015787;-62
2023/03/31 11:12:33;;;;;;;;;;;;;;;22.29;41.45;97590.52;68295;1283;1016167;-62
2023/03/31 11:15:36;;;;;;;15.20;3.50;;;;;;;22.17;40.80;97582.21;68292;1283;1015209;-62
2023/03/31 11:18:38;;;;;;;;;;;;;;;22.31;40.71;97581.38;68296;1283;1015504;-62
2023/03/31 11:21:40;;;;;;;18.60;3.90;;;;;;;22.50;41.23;97573.70;68283;1283;1015666;-62
2023/03/31 11:24:43;;;;;;;;;;;;;;;22.83;40.44;97571.87;68303;1283;1015830;-62
2023/03/31 11:27:46;;;;;;;17.00;3.80;;;;;;;22.58;39.43;97571.23;68300;1283;1015877;-62
2023/03/31 11:30:48;;;;;;;13.20;3.40;;;;;;;22.59;39.38;97564.80;68292;1283;1015519;-62
2023/03/31 11:33:50;;;;;;;;;;;;;;;22.63;39.64;97566.80;68317;1283;1015526;-62
2023/03/31 11:36:56;;;;;;;14.30;3.30;;;;;;;22.36;39.64;97562.55;68299;1283;1016104;-62
2023/03/31 11:39:58;;;;;;;18.00;3.90;;;;;;;22.37;40.01;97559.31;68307;1283;1015339;-62
2023/03/31 11:43:00;;;;;;;15.90;3.90;;;;;;;22.19;40.14;97558.23;68289;1283;1014973;-63
2023/03/31 11:46:03;;;;;;;;;;;;;;;22.25;40.14;97554.20;68290;1283;1016180;-62
2023/03/31 11:49:05;;;;;;;15.40;3.90;;;;;;;21.96;40.24;97542.11;68294;1283;1015610;-62
2023/03/31 11:52:08;;;;;;;;;;;;;;;21.96;40.64;97536.26;68297;1283;1015415;-62
2023/03/31 11:55:14;;;;;;;20.20;5.30;;;;;;;22.04;40.32;97534.02;68291;1283;1015842;-63
2023/03/31 11:58:19;;;;;;;17.10;3.80;;;;;;;22.00;40.84;97533.52;68286;1283;1015579;-62
2023/03/31 12:01:21;;;;;;;;;;;;;;;21.93;40.55;97527.11;68304;1283;1015638;-62
2023/03/31 12:04:24;;;;;;;;;;;;;;;22.17;40.49;97524.50;68295;1283;1015328;-62
2023/03/31 12:07:26;;;;;;;;;;;;;;;22.40;40.20;97519.48;68288;1283;1016140;-63
2023/03/31 12:10:29;;;;;;;16.00;3.90;;;;;;;22.34;40.32;97514.70;68279;1283;1015790;-62
2023/03/31 12:13:31;;;;;;;;;;;;;;;22.25;39.81;97510.42;68294;1283;1015909;-63
2023/03/31 12:16:33;;;;;;;15.50;3.50;;;;;;;22.09;39.77;97513.88;68295;1283;1016077;-63
2023/03/31 12:19:36;;;;;;;18.70;3.90;;;;;;;21.82;39.98;97503.90;68291;1283;1015963;-62
2023/03/31 12:22:38;;;;;;;;;;;;;;;21.68;40.09;97509.74;68304;1283;1016902;-62
2023/03/31 12:25:41;;;;;;;15.40;3.60;;;;;;;21.81;40.09;97503.68;68284;1283;1015798;-62
2023/03/31 12:28:43;;;;;;;;;;;;;;;21.70;39.55;97495.48;68308;1283;1016115;-63
2023/03/31 12:31:45;;;;;;;20.50;4.00;;;;;;;21.47;40.69;97496.28;68280;1283;1015889;-62
2023/03/31 12:34:48;;;;;;;17.40;3.90;;;;;;;21.66;40.14;97498.36;68307;1283;1015629;-62
2023/03/31 12:37:50;;;;;;;13.80;3.50;;;;;;;21.80;40.54;97493.45;68292;1283;1015961;-62
2023/03/31 12:40:53;;;;;;;;;;;;;;;22.06;39.55;97482.48;68290;1283;1015629;-62
2023/03/31 12:43:55;;;;;;;22.20;4.90;;;;;;;22.01;39.82;97480.30;68287;1283;1015881;-63
2023/03/31 12:46:57;;;;;;;;;;;;;;;21.78;40.39;97474.52;68300;1283;1016004;-62
2023/03/31 12:50:00;;;;;;;17.80;3.80;;;;;;;21.70;40.83;97481.71;68296;1283;1016115;-62
2023/03/31 12:53:04;;;;;;;15.40;3.50;;;;;;;21.38;40.55;97476.45;68296;1283;1015563;-62
2023/03/31 12:56:07;;;;;;;17.80;4.10;;;;;;;21.34;41.05;97478.34;68293;1283;1016173;-62
2023/03/31 12:59:09;;;;;;;18.40;3.90;;;;;;;21.30;41.29;97472.53;68305;1283;1015273;-63
2023/03/31 13:02:12;;;;;;;17.90;4.20;;;;;;;21.24;41.57;97477.45;68308;1283;1016856;-63
2023/03/31 13:05:14;;;;;;;16.50;4.20;;;;;;;21.30;41.89;97467.98;68283;1283;1016040;-62
2023/03/31 13:08:18;;;;;;;15.70;4.00;;;;;;;21.53;42.13;97454.22;68288;1283;1015981;-63
2023/03/31 13:11:20;;;;;;;;;;;;;;;21.63;41.88;97442.23;68301;1283;1015985;-63
2023/03/31 13:14:22;;;;;;;15.30;3.60;;;;;;;21.91;42.05;97432.45;68303;1283;1016029;-63
2023/03/31 13:17:25;;;;;;;;;;;;;;;22.05;41.52;97426.91;68287;1283;1015729;-63
2023/03/31 13:20:27;;;;;;;;;;;;;;;22.48;41.87;97414.20;65733;1283;6376263;-63
2023/03/31 13:23:29;;;;;;;16.90;3.60;;;;;;;22.58;41.09;97407.15;68300;1283;1015207;-63
2023/03/31 13:26:32;;;;;;;;;;;;;;;22.49;40.85;97407.34;68312;1283;1016304;-62
2023/03/31 13:29:34;;;;;;;17.10;3.70;;;;;;;22.60;40.30;97402.50;68311;1283;1015380;-63
2023/03/31 13:32:38;;;;;;;18.70;4.40;;;;;;;22.40;39.00;97401.02;68301;1283;1015263;-62
2023/03/31 13:35:41;;;;;;;14.90;3.70;;;;;;;22.15;40.40;97395.19;68295;1283;1015286;-62
2023/03/31 13:38:43;;;;;;;17.60;4.20;;;;;;;22.03;40.15;97386.58;68302;1283;1015301;-62
2023/03/31 13:41:46;;;;;;;;;;;;;;;21.73;40.47;97382.09;68304;1283;1015290;-63
2023/03/31 13:44:49;;;;;;;17.00;4.10;;;;;;;21.38;40.44;97386.93;68303;1283;1015456;-62
2023/03/31 13:47:53;;;;;;;17.20;4.00;;;;;;;21.63;41.41;97375.13;68289;1283;1015379;-62
2023/03/31 13:50:55;;;;;;;19.20;3.80;;;;;;;21.90;40.88;97380.95;68303;1283;1015460;-63
2023/03/31 13:53:58;;;;;;;;;;;;;;;22.05;40.23;97365.46;68304;1283;1015258;-62
2023/03/31 13:57:00;;;;;;;16.70;4.00;;;;;;;21.86;40.25;97363.25;68298;1283;1015988;-62
2023/03/31 14:00:10;;;;;;;;;;;;;;;21.48;40.08;97353.55;68304;1283;1015031;-62
2023/03/31 14:03:12;;;;;;;14.70;3.10;;;;;;;21.23;40.66;97353.63;68309;1260;1015313;-62